ダーウィン の空港の天気 - METARとTAF

ダーウィン国際空港 ( YPDN / DRW ) - オーストラリア ノーザンテリトリーダーウィン
飛行場実況気象(Metar)
観測時間01/22 03:30 ACST (01/21 18:00 UTC)
風向・風速西 6m/s
視程10km以上
天気現象
少しの雲 雲底高度 490m
全天の8割程度の雲 雲底高度 5790m
気温29℃
湿度79%
気圧1000hPa
METARYPDN 211800Z 26012KT 9999 FEW016 BKN190 29/25 Q1000
過去の天気等 Google飛行場航空写真 Wunderground天気予報

過去48時間のMETAR

飛行場予報(TAF)
発表時間: 1/22 02:31 ACST (1/21 17:01 UTC)
予報対象時間: 22日3時 ACST ~ 23日9時 ACST
風向・風速西 6m/s
視程10km以上
天気現象弱い雨
全天の4割程度の雲 雲底高度 610m
22日3時 ACST ~ 22日9時 ACST に 確率 30% で一時的に
風向・風速不定 10m/s 瞬間風速 18m/s
視程1,000m
天気現象雷雨
全天の8割程度の雲 雲底高度 300m
全天の4割程度の積乱雲 雲底高度 610m
23日0時 ACST ~ 23日3時 ACST に 確率 30% で一時的に
風向・風速不定 10m/s 瞬間風速 18m/s
視程1,000m
天気現象雷雨
全天の8割程度の雲 雲底高度 300m
全天の4割程度の積乱雲 雲底高度 610m
TAF YPDN 211701Z 2118/2224 27012KT 9999 -RA SCT020 INTER 2118/2224 2000 SHRA BKN010 SCT020
PROB30 TEMPO 2118/2124 VRB20G35KT 1000 TSRA BKN010 SCT020CB
PROB30 TEMPO 2215/2218 VRB20G35KT 1000 TSRA BKN010 SCT020CB